createdAt,value
2022-09-02T00:01:33.038Z,76.76
2022-09-02T00:04:03.051Z,77.16
2022-09-02T00:06:31.410Z,76.71
2022-09-02T00:08:59.901Z,77.33
2022-09-02T00:11:31.701Z,78.19
2022-09-02T00:14:02.726Z,77.94
2022-09-02T00:16:31.861Z,76.55
2022-09-02T00:19:02.650Z,77.47
2022-09-02T00:21:32.913Z,78.39
2022-09-02T00:24:01.296Z,78.46
2022-09-02T00:26:30.422Z,78.31
2022-09-02T00:28:58.545Z,79.79
2022-09-02T00:31:27.549Z,79.00
2022-09-02T00:33:55.915Z,78.63
2022-09-02T00:36:23.535Z,79.23
2022-09-02T00:38:51.243Z,79.01
2022-09-02T00:41:21.674Z,79.45
2022-09-02T00:43:55.395Z,79.57
2022-09-02T00:46:25.841Z,78.79
2022-09-02T00:49:00.615Z,78.49
2022-09-02T00:51:33.800Z,78.57
2022-09-02T00:54:02.389Z,78.95
2022-09-02T00:56:32.368Z,79.50
2022-09-02T00:59:02.020Z,78.06
2022-09-02T01:01:29.789Z,79.63
2022-09-02T01:03:57.576Z,80.24
2022-09-02T01:06:28.536Z,81.43
2022-09-02T01:09:00.145Z,82.04
2022-09-02T01:11:32.167Z,81.89
2022-09-02T01:14:01.734Z,82.13
2022-09-02T01:16:34.541Z,83.36
2022-09-02T01:19:07.508Z,83.06
2022-09-02T01:21:35.765Z,83.32
2022-09-02T01:24:05.915Z,83.98
2022-09-02T01:26:33.630Z,83.61
2022-09-02T01:29:01.314Z,83.32
2022-09-02T01:31:29.005Z,83.44
2022-09-02T01:33:58.001Z,83.62
2022-09-02T01:36:25.812Z,84.60
2022-09-02T01:38:53.408Z,84.62
2022-09-02T01:41:22.346Z,84.26
2022-09-02T01:43:49.982Z,85.73
2022-09-02T01:46:17.666Z,86.24
2022-09-02T01:48:45.332Z,87.05
2022-09-02T01:51:20.100Z,86.59
2022-09-02T01:53:48.666Z,86.94
2022-09-02T01:56:16.781Z,86.91
2022-09-02T01:58:45.723Z,87.02
2022-09-02T02:01:13.439Z,87.72
2022-09-02T02:03:42.475Z,86.95
2022-09-02T02:06:12.268Z,85.97
2022-09-02T02:08:40.887Z,87.00
2022-09-02T02:11:10.861Z,87.11
2022-09-02T02:13:38.882Z,86.78
2022-09-02T02:16:08.669Z,88.45
2022-09-02T02:18:37.564Z,87.79
2022-09-02T02:21:05.311Z,86.91
2022-09-02T02:23:33.250Z,87.40
2022-09-02T02:26:00.948Z,87.87
2022-09-02T02:28:28.620Z,87.79
2022-09-02T02:30:56.271Z,86.83
2022-09-02T02:33:30.563Z,87.10
2022-09-02T02:36:04.694Z,88.38
2022-09-02T02:38:33.159Z,88.86
2022-09-02T02:41:01.925Z,89.03
2022-09-02T02:43:29.579Z,89.39
2022-09-02T02:45:57.198Z,89.61
2022-09-02T02:48:26.201Z,90.88
2022-09-02T02:50:54.057Z,90.93
2022-09-02T02:53:21.994Z,90.78
2022-09-02T02:55:49.923Z,89.04
2022-09-02T02:58:19.426Z,88.82
2022-09-02T03:00:47.056Z,90.74
2022-09-02T03:03:19.260Z,89.22
2022-09-02T03:05:49.089Z,89.74
2022-09-02T03:08:20.914Z,90.48
2022-09-02T03:10:50.089Z,89.54
2022-09-02T03:13:18.107Z,89.78
2022-09-02T03:15:45.820Z,89.93
2022-09-02T03:18:13.445Z,90.17
2022-09-02T03:20:41.450Z,90.06
2022-09-02T03:23:11.416Z,90.97
2022-09-02T03:25:39.019Z,90.64
2022-09-02T03:28:06.690Z,91.66
2022-09-02T03:30:35.794Z,91.34
2022-09-02T03:33:05.642Z,92.41
2022-09-02T03:35:35.076Z,91.45
2022-09-02T03:38:02.690Z,91.33
2022-09-02T03:40:31.884Z,92.52
2022-09-02T03:43:00.581Z,91.42
2022-09-02T03:45:29.025Z,89.89
2022-09-02T03:47:57.655Z,89.77
2022-09-02T03:50:27.571Z,90.07
2022-09-02T03:52:55.673Z,90.66
2022-09-02T03:55:24.394Z,90.30
2022-09-02T03:57:53.809Z,91.64
2022-09-02T04:00:25.087Z,91.85
2022-09-02T04:02:55.321Z,91.40
2022-09-02T04:05:23.735Z,92.30
2022-09-02T04:07:52.574Z,92.30
2022-09-02T04:10:21.901Z,92.59
2022-09-02T04:12:50.571Z,91.95
2022-09-02T04:15:22.175Z,90.61
2022-09-02T04:17:49.962Z,90.84
2022-09-02T04:20:17.959Z,91.69
2022-09-02T04:22:45.632Z,91.00
2022-09-02T04:25:13.548Z,90.74
2022-09-02T04:27:41.737Z,91.65
2022-09-02T04:30:10.414Z,91.24
2022-09-02T04:32:40.940Z,92.25
2022-09-02T04:35:09.362Z,93.53
2022-09-02T04:37:37.019Z,92.48
2022-09-02T04:40:05.422Z,93.62
2022-09-02T04:42:34.071Z,93.68
2022-09-02T04:45:01.693Z,93.65
2022-09-02T04:47:29.316Z,95.27
2022-09-02T04:49:58.376Z,95.06
2022-09-02T04:52:26.708Z,93.46
2022-09-02T04:54:54.413Z,93.81
2022-09-02T04:57:22.338Z,93.98
2022-09-02T04:59:50.010Z,94.12
2022-09-02T05:02:20.222Z,94.72
2022-09-02T05:04:48.108Z,96.35
2022-09-02T05:07:17.083Z,95.83
2022-09-02T05:09:46.172Z,96.00
2022-09-02T05:12:16.126Z,95.76
2022-09-02T05:14:44.062Z,95.69
2022-09-02T05:17:11.805Z,97.66
2022-09-02T05:19:39.393Z,99.00
2022-09-02T05:22:07.044Z,98.07
2022-09-02T05:24:35.998Z,98.55
2022-09-02T05:27:03.623Z,97.79
2022-09-02T05:29:31.222Z,98.35
2022-09-02T05:31:58.785Z,97.02
2022-09-02T05:34:26.441Z,96.33
2022-09-02T05:36:54.467Z,97.19
2022-09-02T05:39:22.080Z,98.36
2022-09-02T05:41:51.023Z,99.16
2022-09-02T05:44:18.693Z,98.19
2022-09-02T05:46:48.930Z,98.57
2022-09-02T05:49:18.177Z,99.07
2022-09-02T05:51:48.334Z,98.62
2022-09-02T05:54:18.364Z,99.93
2022-09-02T05:56:50.710Z,100.00
2022-09-02T05:59:20.873Z,100.00
2022-09-02T06:01:49.387Z,100.00
2022-09-02T06:04:17.603Z,100.00
2022-09-02T06:06:45.159Z,100.00
2022-09-02T06:09:16.757Z,98.46
2022-09-02T06:11:49.118Z,99.70
2022-09-02T06:14:18.777Z,99.73
2022-09-02T06:16:47.735Z,98.16
2022-09-02T06:19:20.164Z,97.26
2022-09-02T06:21:49.456Z,96.71
2022-09-02T06:24:17.663Z,97.93
2022-09-02T06:26:45.421Z,96.95
2022-09-02T06:29:13.526Z,97.68
2022-09-02T06:31:43.175Z,96.89
2022-09-02T06:34:13.654Z,95.46
2022-09-02T06:36:42.925Z,95.99
2022-09-02T06:39:13.001Z,94.64
2022-09-02T06:41:42.881Z,94.96
2022-09-02T06:44:12.380Z,93.56
2022-09-02T06:46:46.305Z,93.13
2022-09-02T06:49:16.786Z,93.66
2022-09-02T06:51:47.376Z,93.07
2022-09-02T06:54:16.842Z,92.87
2022-09-02T06:56:49.229Z,91.92
2022-09-02T06:59:17.310Z,90.91
2022-09-02T07:01:45.351Z,90.35
2022-09-02T07:04:30.487Z,89.79
2022-09-02T07:06:59.492Z,89.29
2022-09-02T07:09:31.045Z,88.81
2022-09-02T07:12:04.222Z,88.21
2022-09-02T07:14:36.815Z,88.59
2022-09-02T07:17:04.870Z,89.66
2022-09-02T07:19:32.861Z,89.51
2022-09-02T07:22:03.780Z,88.99
2022-09-02T07:24:31.410Z,87.79
2022-09-02T07:26:59.017Z,88.74
2022-09-02T07:29:26.862Z,88.47
2022-09-02T07:31:54.529Z,88.57
2022-09-02T07:34:22.492Z,88.57
2022-09-02T07:36:50.211Z,88.26
2022-09-02T07:39:20.364Z,86.62
2022-09-02T07:41:50.827Z,85.77
2022-09-02T07:44:20.723Z,85.45
2022-09-02T07:46:48.315Z,85.29
2022-09-02T07:49:20.866Z,84.31
2022-09-02T07:51:51.969Z,83.47
2022-09-02T07:54:24.812Z,83.09
2022-09-02T07:56:52.658Z,82.40
2022-09-02T07:59:22.131Z,81.89
2022-09-02T08:01:51.312Z,80.89
2022-09-02T08:04:20.225Z,80.90
2022-09-02T08:06:48.126Z,80.64
2022-09-02T08:09:15.751Z,79.94
2022-09-02T08:11:47.498Z,80.03
2022-09-02T08:14:18.782Z,78.88
2022-09-02T08:16:47.934Z,78.44
2022-09-02T08:19:16.262Z,78.22
2022-09-02T08:21:44.060Z,78.09
2022-09-02T08:24:12.906Z,77.48
2022-09-02T08:26:40.539Z,77.08
2022-09-02T08:29:10.575Z,76.60
2022-09-02T08:31:39.066Z,75.79
2022-09-02T08:34:06.782Z,76.60
2022-09-02T08:36:34.358Z,75.85
2022-09-02T08:39:03.525Z,74.81
2022-09-02T08:41:39.780Z,74.24
2022-09-02T08:44:11.411Z,74.76
2022-09-02T08:46:39.350Z,72.99
2022-09-02T08:49:10.243Z,72.81
2022-09-02T08:51:42.074Z,71.38
2022-09-02T08:54:18.318Z,71.38
2022-09-02T08:56:46.158Z,70.65
2022-09-02T08:59:15.824Z,69.49
2022-09-02T09:01:50.815Z,70.42
2022-09-02T09:04:33.865Z,69.40
2022-09-02T09:07:16.444Z,69.12
2022-09-02T09:09:56.361Z,67.51
2022-09-02T09:12:36.484Z,67.74
2022-09-02T09:15:12.539Z,66.77
2022-09-02T09:17:45.093Z,65.56
2022-09-02T09:20:17.802Z,65.79
2022-09-02T09:22:46.859Z,65.78
2022-09-02T09:25:16.356Z,63.66
2022-09-02T09:27:46.039Z,62.98
2022-09-02T09:30:15.841Z,63.21
2022-09-02T09:32:47.334Z,62.45
2022-09-02T09:35:16.571Z,60.94
2022-09-02T09:37:47.899Z,60.76
2022-09-02T09:40:25.393Z,59.30
2022-09-02T09:42:56.890Z,58.68
2022-09-02T09:45:33.154Z,57.25
2022-09-02T09:48:14.026Z,55.84
2022-09-02T09:50:41.677Z,55.43
2022-09-02T09:53:15.882Z,55.12
2022-09-02T09:55:53.659Z,54.71
2022-09-02T09:58:22.732Z,54.69
2022-09-02T10:01:00.396Z,53.40
2022-09-02T10:03:33.177Z,52.78
2022-09-02T10:06:19.075Z,50.27
2022-09-02T10:08:53.651Z,50.46
2022-09-02T10:11:24.392Z,49.51
2022-09-02T10:13:52.161Z,48.17
2022-09-02T10:16:49.785Z,47.72
2022-09-02T10:19:27.867Z,47.92
2022-09-02T10:22:19.073Z,48.87
2022-09-02T10:24:59.286Z,47.85
2022-09-02T10:27:37.775Z,47.17
2022-09-02T10:30:09.429Z,47.16
2022-09-02T10:33:01.255Z,47.91
2022-09-02T10:35:37.678Z,47.11
2022-09-02T10:38:18.646Z,47.10
2022-09-02T10:40:51.099Z,46.90
2022-09-02T10:43:31.163Z,47.17
2022-09-02T10:46:01.504Z,46.90
2022-09-02T10:48:42.144Z,46.35
2022-09-02T10:51:18.336Z,45.32
2022-09-02T10:54:09.565Z,44.46
2022-09-02T10:56:45.898Z,43.58
2022-09-02T10:59:21.336Z,44.18
2022-09-02T11:01:54.203Z,44.11
2022-09-02T11:04:34.372Z,43.82
2022-09-02T11:07:05.366Z,43.63
2022-09-02T11:09:37.711Z,44.44
2022-09-02T11:12:10.920Z,43.26
2022-09-02T11:14:49.634Z,43.30
2022-09-02T11:17:23.826Z,42.35
2022-09-02T11:19:59.374Z,42.63
2022-09-02T11:22:35.924Z,42.42
2022-09-02T11:25:10.163Z,42.18
2022-09-02T11:27:43.955Z,41.83
2022-09-02T11:30:16.021Z,42.42
2022-09-02T11:32:50.371Z,41.58
2022-09-02T11:35:24.477Z,42.45
2022-09-02T11:37:56.396Z,40.88
2022-09-02T11:40:34.991Z,40.58
2022-09-02T11:43:15.631Z,40.70
2022-09-02T11:46:07.547Z,40.44
2022-09-02T11:48:56.432Z,40.22
2022-09-02T11:51:41.001Z,40.31
2022-09-02T11:54:12.956Z,39.93
2022-09-02T11:56:47.161Z,40.03
2022-09-02T11:59:22.049Z,39.92
2022-09-02T12:01:52.889Z,38.98
2022-09-02T12:04:58.556Z,38.39
2022-09-02T12:07:26.862Z,37.97
2022-09-02T12:09:57.974Z,36.86
2022-09-02T12:13:08.182Z,36.99
2022-09-02T12:15:38.334Z,37.12
2022-09-02T12:18:30.926Z,36.00
2022-09-02T12:21:16.635Z,35.27
2022-09-02T12:24:24.528Z,35.45
2022-09-02T12:27:19.859Z,35.09
2022-09-02T12:29:47.515Z,35.02
2022-09-02T12:33:04.784Z,35.53
2022-09-02T12:35:51.482Z,35.40
2022-09-02T12:38:31.124Z,35.62
2022-09-02T12:41:23.050Z,35.83
2022-09-02T12:44:21.420Z,35.99
2022-09-02T12:46:58.429Z,35.80
2022-09-02T12:49:42.171Z,35.85
2022-09-02T12:52:11.470Z,35.44
2022-09-02T12:54:47.758Z,36.26
2022-09-02T12:57:18.314Z,36.57
2022-09-02T12:59:48.415Z,36.74
2022-09-02T13:02:30.212Z,37.13
2022-09-02T13:05:15.509Z,36.62
2022-09-02T13:08:12.975Z,36.89
2022-09-02T13:10:56.049Z,36.13
2022-09-02T13:14:00.636Z,36.74
2022-09-02T13:16:39.617Z,36.55
2022-09-02T13:19:48.110Z,37.19
2022-09-02T13:22:40.110Z,37.01
2022-09-02T13:25:22.015Z,37.67
2022-09-02T13:28:20.058Z,37.31
2022-09-02T13:31:04.769Z,37.19
2022-09-02T13:33:33.334Z,37.18
2022-09-02T13:36:01.226Z,37.10
2022-09-02T13:38:30.770Z,36.59
2022-09-02T13:40:59.400Z,36.50
2022-09-02T13:43:28.093Z,35.46
2022-09-02T13:46:03.311Z,34.99
2022-09-02T13:48:33.186Z,35.04
2022-09-02T13:51:10.074Z,35.22
2022-09-02T13:54:05.059Z,36.25
2022-09-02T13:56:30.581Z,35.98
2022-09-02T13:58:58.286Z,35.54
2022-09-02T14:01:30.593Z,35.85
2022-09-02T14:04:01.054Z,35.42
2022-09-02T14:06:31.222Z,35.05
2022-09-02T14:09:02.965Z,35.45
2022-09-02T14:11:38.970Z,35.90
2022-09-02T14:14:07.039Z,35.51
2022-09-02T14:16:37.926Z,35.42
2022-09-02T14:19:14.466Z,35.85
2022-09-02T14:21:48.613Z,34.88
2022-09-02T14:24:20.865Z,35.41
2022-09-02T14:26:51.146Z,35.54
2022-09-02T14:47:30.986Z,35.49
2022-09-02T14:49:58.651Z,35.02
2022-09-02T14:52:28.804Z,35.26
2022-09-02T14:54:57.659Z,34.93
2022-09-02T14:57:27.902Z,35.28
2022-09-02T14:59:57.900Z,35.73
2022-09-02T15:02:33.468Z,35.59
2022-09-02T15:05:02.805Z,35.72
2022-09-02T15:07:30.821Z,35.79
2022-09-02T15:09:58.689Z,35.73
2022-09-02T15:12:29.654Z,35.51
2022-09-02T15:14:57.793Z,35.62
2022-09-02T15:17:25.985Z,35.42
2022-09-02T15:19:55.012Z,35.81
2022-09-02T15:22:24.278Z,35.82
2022-09-02T15:24:53.073Z,35.89
2022-09-02T15:27:21.716Z,35.86
2022-09-02T15:29:49.661Z,36.41
2022-09-02T15:32:17.873Z,36.71
2022-09-02T15:34:45.556Z,36.39
2022-09-02T15:37:14.810Z,36.12
2022-09-02T15:39:42.486Z,36.35
2022-09-02T15:42:10.167Z,36.07
2022-09-02T15:44:37.957Z,36.65
2022-09-02T15:47:05.890Z,36.63
2022-09-02T15:49:33.541Z,37.09
2022-09-02T15:52:02.604Z,36.12
2022-09-02T15:54:31.872Z,36.33
2022-09-02T15:57:00.043Z,36.49
2022-09-02T15:59:28.162Z,36.23
2022-09-02T16:01:58.531Z,36.03
2022-09-02T16:04:28.186Z,35.74
2022-09-02T16:06:56.484Z,36.57
2022-09-02T16:09:25.087Z,36.37
2022-09-02T16:11:56.235Z,36.76
2022-09-02T16:14:25.674Z,36.67
2022-09-02T16:16:58.351Z,36.98
2022-09-02T16:19:30.068Z,36.65
2022-09-02T16:21:58.870Z,37.20
2022-09-02T16:24:27.076Z,37.00
2022-09-02T16:26:56.372Z,36.75
2022-09-02T16:29:28.212Z,36.85
2022-09-02T16:32:14.291Z,36.88
2022-09-02T16:34:45.327Z,37.13
2022-09-02T16:37:13.130Z,36.93
2022-09-02T16:39:41.479Z,36.92
2022-09-02T16:42:10.690Z,36.99
2022-09-02T16:44:41.459Z,37.42
2022-09-02T16:47:09.440Z,37.24
2022-09-02T16:49:40.693Z,37.52
2022-09-02T16:52:08.686Z,37.42
2022-09-02T16:54:40.770Z,37.34
2022-09-02T16:57:10.511Z,37.64
2022-09-02T16:59:38.225Z,37.70
2022-09-02T17:02:06.289Z,37.27
2022-09-02T17:04:34.181Z,37.65
2022-09-02T17:07:02.004Z,37.90
2022-09-02T17:09:29.704Z,37.95
2022-09-02T17:11:57.550Z,37.50
2022-09-02T17:14:26.588Z,37.88
2022-09-02T17:16:54.772Z,37.48
2022-09-02T17:19:22.889Z,37.41
2022-09-02T17:21:51.802Z,37.50
2022-09-02T17:24:21.637Z,37.58
2022-09-02T17:26:51.717Z,37.72
2022-09-02T17:29:47.613Z,37.68
2022-09-02T17:32:10.713Z,37.79
2022-09-02T17:34:38.508Z,38.03
2022-09-02T17:37:06.968Z,38.21
2022-09-02T17:39:35.033Z,38.29
2022-09-02T17:42:03.045Z,38.25
2022-09-02T17:44:35.906Z,38.17
2022-09-02T17:47:05.904Z,38.56
2022-09-02T17:49:36.435Z,38.20
2022-09-02T17:52:05.469Z,38.13
2022-09-02T17:54:33.651Z,38.29
2022-09-02T17:57:10.578Z,38.71
2022-09-02T17:59:53.211Z,38.80
2022-09-02T18:02:41.452Z,39.01
2022-09-02T18:05:17.629Z,39.04
2022-09-02T18:07:53.614Z,39.49
2022-09-02T18:10:22.455Z,39.59
2022-09-02T18:12:50.597Z,39.54
2022-09-02T18:15:19.033Z,39.50
2022-09-02T18:17:49.117Z,39.76
2022-09-02T18:20:27.959Z,39.88
2022-09-02T18:23:17.789Z,40.00
2022-09-02T18:25:57.093Z,40.24
2022-09-02T18:28:37.947Z,40.16
2022-09-02T18:31:18.153Z,40.44
2022-09-02T18:33:59.434Z,40.69
2022-09-02T18:36:39.020Z,40.58
2022-09-02T18:39:28.889Z,40.77
2022-09-02T18:42:07.285Z,40.84
2022-09-02T18:44:44.754Z,41.01
2022-09-02T18:47:18.119Z,41.23
2022-09-02T18:49:46.979Z,41.17
2022-09-02T18:52:16.553Z,41.32
2022-09-02T18:54:50.730Z,41.51
2022-09-02T18:57:18.893Z,41.49
2022-09-02T18:59:50.666Z,41.67
2022-09-02T19:02:28.813Z,41.77
2022-09-02T19:04:59.034Z,41.89
2022-09-02T19:07:49.673Z,42.13
2022-09-02T19:10:17.492Z,42.15
2022-09-02T19:12:45.731Z,42.32
2022-09-02T19:15:15.003Z,42.11
2022-09-02T19:17:45.081Z,42.41
2022-09-02T19:20:12.830Z,42.21
2022-09-02T19:22:45.547Z,42.44
2022-09-02T19:25:18.361Z,42.59
2022-09-02T19:27:49.083Z,42.72
2022-09-02T19:30:19.356Z,42.59
2022-09-02T19:32:49.794Z,42.66
2022-09-02T19:35:21.039Z,42.83
2022-09-02T19:37:53.225Z,42.99
2022-09-02T19:40:23.023Z,43.10
2022-09-02T19:42:51.954Z,43.34
2022-09-02T19:45:21.041Z,43.24
2022-09-02T19:50:37.993Z,43.72
2022-09-02T19:53:07.184Z,43.88
2022-09-02T19:55:35.988Z,43.86
2022-09-02T19:58:03.911Z,44.32
2022-09-02T20:00:33.161Z,44.48
2022-09-02T20:03:01.169Z,44.71
2022-09-02T20:05:29.842Z,44.78
2022-09-02T20:07:57.502Z,45.19
2022-09-02T20:10:27.587Z,45.16
2022-09-02T20:12:56.234Z,44.98
2022-09-02T20:15:23.881Z,44.99
2022-09-02T20:17:51.536Z,45.10
2022-09-02T20:20:22.419Z,45.38
2022-09-02T20:22:55.123Z,45.70
2022-09-02T20:25:32.027Z,45.58
2022-09-02T20:28:10.254Z,45.83
2022-09-02T20:30:43.453Z,45.81
2022-09-02T20:33:17.432Z,45.94
2022-09-02T20:35:58.493Z,45.91
2022-09-02T20:38:44.037Z,46.51
2022-09-02T20:41:27.998Z,46.23
2022-09-02T20:44:17.938Z,46.67
2022-09-02T20:46:59.033Z,46.79
2022-09-02T20:49:43.151Z,47.59
2022-09-02T20:52:17.876Z,47.69
2022-09-02T20:54:48.989Z,48.00
2022-09-02T20:57:30.232Z,48.69
2022-09-02T21:00:06.977Z,49.12
2022-09-02T21:02:39.391Z,49.14
2022-09-02T21:05:12.472Z,49.26
2022-09-02T21:07:45.507Z,49.19
2022-09-02T21:10:20.057Z,48.90
2022-09-02T21:12:56.042Z,49.19
2022-09-02T21:15:28.864Z,49.41
2022-09-02T21:18:03.141Z,49.92
2022-09-02T21:20:41.863Z,49.49
2022-09-02T21:23:15.943Z,49.79
2022-09-02T21:25:50.503Z,49.90
2022-09-02T21:28:23.616Z,50.04
2022-09-02T21:30:59.531Z,49.92
2022-09-02T21:33:30.589Z,50.30
2022-09-02T21:36:00.093Z,50.65
2022-09-02T21:38:35.615Z,50.56
2022-09-02T21:41:15.023Z,50.87
2022-09-02T21:43:56.630Z,51.63
2022-09-02T21:46:32.233Z,51.37
2022-09-02T21:49:06.239Z,51.91
2022-09-02T21:51:37.014Z,51.98
2022-09-02T21:54:25.583Z,51.94
2022-09-02T21:57:08.885Z,52.17
2022-09-02T22:00:00.477Z,52.72
2022-09-02T22:02:40.139Z,52.71
2022-09-02T22:05:17.610Z,52.59
2022-09-02T22:07:50.262Z,53.08
2022-09-02T22:10:28.762Z,53.17
2022-09-02T22:13:03.012Z,52.82
2022-09-02T22:15:42.554Z,53.81
2022-09-02T22:18:20.750Z,53.87
2022-09-02T22:20:53.851Z,53.52
2022-09-02T22:23:26.217Z,54.41
2022-09-02T22:25:55.874Z,54.48
2022-09-02T22:28:32.105Z,54.78
2022-09-02T22:31:08.896Z,54.01
2022-09-02T22:33:42.734Z,53.61
2022-09-02T22:36:34.955Z,54.40
2022-09-02T22:39:03.346Z,55.15
2022-09-02T22:41:41.695Z,55.23
2022-09-02T22:44:14.954Z,54.70
2022-09-02T22:47:07.879Z,55.10
2022-09-02T22:49:59.276Z,54.90
2022-09-02T22:52:55.405Z,55.22
2022-09-02T22:55:33.870Z,55.99
2022-09-02T22:58:20.903Z,56.82
2022-09-02T23:00:59.645Z,56.38
2022-09-02T23:03:38.644Z,56.43
2022-09-02T23:06:14.792Z,56.80
2022-09-02T23:08:45.916Z,56.64
2022-09-02T23:11:19.337Z,56.95
2022-09-02T23:13:58.235Z,56.57
2022-09-02T23:16:39.605Z,57.29
2022-09-02T23:19:20.557Z,58.32
2022-09-02T23:21:55.446Z,58.29
2022-09-02T23:24:32.905Z,58.02
2022-09-02T23:27:08.164Z,57.53
2022-09-02T23:29:37.699Z,58.51
2022-09-02T23:32:46.303Z,58.92
2022-09-02T23:35:24.035Z,59.57
2022-09-02T23:38:06.811Z,59.96
2022-09-02T23:40:40.727Z,60.16
2022-09-02T23:43:09.853Z,59.58
2022-09-02T23:45:37.800Z,60.48
2022-09-02T23:48:25.957Z,60.75
2022-09-02T23:51:10.373Z,60.75
2022-09-02T23:53:48.186Z,60.53
2022-09-02T23:56:32.682Z,59.77
2022-09-02T23:59:23.735Z,59.87
